Time;durP1;ratioP1;P1;durP2;ratioP2;P2;SDS_P1;SDS_P2;PMS_P1;PMS_P2;Temp;Humidity;BMP_temperature;BMP_pressure;BME280_temperature;BME280_humidity;BME280_pressure;Samples;Min_cycle;Max_cycle;Signal;HPM_P1;HPM_P2
2022/05/21 00:00:26;;;;;;;;;;;19.70;55.70;;;;;;5125934;28;20423;-45
2022/05/21 00:02:53;;;;;;;;;;;20.00;57.70;;;;;;5121060;28;20006;-46
2022/05/21 00:05:19;;;;;;;;;;;20.80;62.10;;;;;;5120819;28;20080;-50
2022/05/21 00:07:45;;;;;;;;;;;21.50;62.40;;;;;;5126266;28;19934;-47
2022/05/21 00:10:14;;;;;;;;;;;21.30;60.00;;;;;;5120899;28;19924;-45
2022/05/21 00:12:40;;;;;;;;;;;20.60;58.10;;;;;;5123033;28;20446;-56
2022/05/21 00:15:06;;;;;;;;;;;20.30;56.60;;;;;;5121469;28;20019;-46
2022/05/21 00:17:31;;;;;;;;;;;19.90;56.10;;;;;;5119898;28;19924;-47
2022/05/21 00:19:57;;;;;;;;;;;19.90;55.00;;;;;;5126089;28;20222;-46
2022/05/21 00:22:23;;;;;;;;;;;20.00;58.50;;;;;;5120654;28;19924;-45
2022/05/21 00:24:49;;;;;;;;;;;20.80;62.00;;;;;;5120637;28;19939;-44
2022/05/21 00:27:15;;;;;;;;;;;21.50;62.10;;;;;;5107635;28;20299;-44
2022/05/21 00:29:40;;;;;;;;;;;21.50;59.90;;;;;;5120515;27;19931;-47
2022/05/21 00:32:06;;;;;;;;;;;20.70;58.00;;;;;;5119228;28;19923;-52
2022/05/21 00:34:34;;;;;;;;;;;20.40;56.30;;;;;;5124320;28;20362;-47
2022/05/21 00:37:00;;;;;;;;;;;20.00;55.60;;;;;;5120020;28;19930;-46
2022/05/21 00:39:26;;;;;;;;;;;19.80;55.00;;;;;;5125681;28;19924;-45
2022/05/21 00:41:52;;;;;;;;;;;19.90;57.20;;;;;;5120536;28;20420;-47
2022/05/21 00:44:18;;;;;;;;;;;20.60;61.90;;;;;;5120690;28;19927;-45
2022/05/21 00:46:44;;;;;;;;;;;21.50;61.50;;;;;;5125933;28;19953;-48
2022/05/21 00:49:22;;;;;;;;;;;21.40;59.40;;;;;;5120340;28;19930;-47
2022/05/21 00:51:52;;;;;;;;;;;20.80;57.70;;;;;;5117894;28;20061;-45
2022/05/21 00:54:19;;;;;;;;;;;20.30;56.10;;;;;;5106717;28;19970;-44
2022/05/21 00:56:46;;;;;;;;;;;19.80;55.70;;;;;;5120103;28;19923;-44
2022/05/21 01:01:58;;;;;;;;;;;20.20;58.20;;;;;;5125635;28;19928;-45
2022/05/21 01:04:24;;;;;;;;;;;21.10;61.20;;;;;;5101177;28;19963;-46
2022/05/21 01:06:50;;;;;;;;;;;21.80;60.50;;;;;;5103636;28;19928;-53
2022/05/21 01:09:15;;;;;;;;;;;21.10;58.30;;;;;;5120913;28;20331;-48
2022/05/21 01:11:41;;;;;;;;;;;20.50;56.80;;;;;;5118761;28;19990;-45
2022/05/21 01:14:08;;;;;;;;;;;20.20;55.40;;;;;;5125002;28;19929;-46
2022/05/21 01:16:34;;;;;;;;;;;19.90;55.10;;;;;;5101643;28;19970;-46
2022/05/21 01:19:03;;;;;;;;;;;19.70;54.30;;;;;;5119707;28;20007;-46
2022/05/21 01:21:29;;;;;;;;;;;20.30;58.60;;;;;;5125361;28;20458;-46
2022/05/21 01:23:55;;;;;;;;;;;21.10;60.70;;;;;;5120052;28;19928;-43
2022/05/21 01:26:21;;;;;;;;;;;21.80;60.10;;;;;;5119433;28;20003;-45
2022/05/21 01:28:46;;;;;;;;;;;20.90;57.80;;;;;;5122750;28;20276;-45
2022/05/21 01:31:12;;;;;;;;;;;20.30;56.60;;;;;;5118972;28;19927;-45
2022/05/21 01:33:39;;;;;;;;;;;20.00;55.30;;;;;;5124755;28;19927;-45
2022/05/21 01:36:06;;;;;;;;;;;19.80;54.60;;;;;;5119630;28;19949;-46
2022/05/21 01:38:32;;;;;;;;;;;20.20;59.00;;;;;;5119751;28;19923;-46
2022/05/21 01:40:58;;;;;;;;;;;21.00;61.10;;;;;;5125153;27;20389;-45
2022/05/21 01:46:09;;;;;;;;;;;20.80;57.80;;;;;;5105392;28;19934;-48
2022/05/21 01:48:35;;;;;;;;;;;20.30;56.00;;;;;;5127412;28;20010;-44
2022/05/21 01:51:01;;;;;;;;;;;20.10;54.70;;;;;;5122601;28;19924;-43
2022/05/21 01:53:27;;;;;;;;;;;19.80;54.10;;;;;;5123124;28;19938;-45
2022/05/21 01:55:53;;;;;;;;;;;20.10;58.40;;;;;;5128310;28;19933;-46
2022/05/21 01:58:20;;;;;;;;;;;20.80;60.80;;;;;;5123055;28;19923;-44
2022/05/21 02:00:46;;;;;;;;;;;21.70;59.40;;;;;;5128421;28;19927;-45
2022/05/21 02:03:12;;;;;;;;;;;20.80;57.80;;;;;;5122266;28;19934;-47
2022/05/21 02:05:37;;;;;;;;;;;20.20;56.50;;;;;;5120757;28;20068;-45
2022/05/21 02:08:03;;;;;;;;;;;19.90;55.50;;;;;;5123709;28;20652;-46
2022/05/21 02:10:29;;;;;;;;;;;19.80;54.60;;;;;;5122717;28;19930;-46
2022/05/21 02:12:55;;;;;;;;;;;19.90;58.00;;;;;;5122805;28;19923;-46
2022/05/21 02:15:21;;;;;;;;;;;20.90;60.10;;;;;;5128135;28;19927;-44
2022/05/21 02:17:47;;;;;;;;;;;21.60;59.10;;;;;;5122889;28;19923;-48
2022/05/21 02:20:12;;;;;;;;;;;21.00;57.40;;;;;;5128251;28;19924;-45
2022/05/21 02:22:38;;;;;;;;;;;20.30;56.40;;;;;;5120488;28;19958;-46
2022/05/21 02:25:04;;;;;;;;;;;20.00;55.30;;;;;;5120900;28;20416;-45
2022/05/21 02:27:30;;;;;;;;;;;19.70;54.70;;;;;;5127213;28;20450;-47
2022/05/21 02:29:56;;;;;;;;;;;19.80;56.00;;;;;;5122601;28;19930;-47
2022/05/21 02:32:22;;;;;;;;;;;20.70;59.70;;;;;;5122466;28;19930;-47
2022/05/21 02:34:48;;;;;;;;;;;21.50;59.00;;;;;;5127754;28;19923;-48
2022/05/21 02:39:58;;;;;;;;;;;20.40;56.50;;;;;;5121805;28;19928;-48
2022/05/21 02:45:09;;;;;;;;;;;19.80;54.50;;;;;;5121861;28;20014;-46
2022/05/21 02:47:34;;;;;;;;;;;20.00;55.50;;;;;;5122559;28;19923;-54
2022/05/21 02:50:00;;;;;;;;;;;20.80;59.20;;;;;;5127401;28;20275;-47
2022/05/21 02:52:26;;;;;;;;;;;21.50;58.60;;;;;;5122309;27;19947;-45
2022/05/21 02:54:52;;;;;;;;;;;21.30;56.90;;;;;;5109035;28;19988;-44
2022/05/21 02:57:17;;;;;;;;;;;20.30;56.30;;;;;;5102984;28;19938;-45
2022/05/21 02:59:43;;;;;;;;;;;19.90;55.20;;;;;;5119923;28;19934;-48
2022/05/21 03:02:09;;;;;;;;;;;19.80;54.40;;;;;;5126112;28;19930;-44
2022/05/21 03:04:35;;;;;;;;;;;19.80;55.00;;;;;;5121676;28;19924;-46
2022/05/21 03:07:01;;;;;;;;;;;20.50;59.30;;;;;;5121681;28;19937;-46
2022/05/21 03:12:11;;;;;;;;;;;21.50;57.00;;;;;;5121971;28;19927;-45
2022/05/21 03:14:37;;;;;;;;;;;20.40;56.00;;;;;;5123599;28;20010;-53
2022/05/21 03:17:03;;;;;;;;;;;19.90;55.20;;;;;;5124362;28;19977;-46
2022/05/21 03:19:30;;;;;;;;;;;19.70;54.30;;;;;;5119675;28;20022;-51
2022/05/21 03:21:56;;;;;;;;;;;20.00;57.10;;;;;;5107955;28;20010;-45
2022/05/21 03:24:22;;;;;;;;;;;20.90;59.00;;;;;;5121466;28;20027;-44
2022/05/21 03:26:47;;;;;;;;;;;21.80;57.40;;;;;;5121743;28;19928;-57
2022/05/21 03:29:13;;;;;;;;;;;21.70;57.60;;;;;;5126977;28;20370;-57
2022/05/21 03:31:39;;;;;;;;;;;21.90;55.40;;;;;;5121388;28;19983;-59
2022/05/21 03:34:08;;;;;;;;;;;22.00;54.00;;;;;;5121591;28;19923;-58
2022/05/21 03:36:34;;;;;;;;;;;22.10;52.80;;;;;;5124497;28;19929;-57
2022/05/21 03:38:59;;;;;;;;;;;22.00;52.40;;;;;;5120501;28;20366;-58
2022/05/21 03:41:25;;;;;;;;;;;22.00;52.20;;;;;;5126431;28;20398;-58
2022/05/21 03:43:52;;;;;;;;;;;22.20;51.80;;;;;;5121329;28;19927;-57
2022/05/21 03:46:18;;;;;;;;;;;22.20;51.40;;;;;;5121053;28;20443;-57
2022/05/21 03:48:44;;;;;;;;;;;22.30;51.10;;;;;;5126682;28;19927;-57
2022/05/21 03:51:10;;;;;;;;;;;22.30;50.70;;;;;;5121307;28;19934;-58
2022/05/21 03:53:36;;;;;;;;;;;22.50;50.40;;;;;;5120353;28;20675;-58
2022/05/21 03:56:01;;;;;;;;;;;22.50;50.00;;;;;;5124429;28;19985;-58
2022/05/21 03:58:27;;;;;;;;;;;22.50;49.80;;;;;;5120580;28;19968;-57
2022/05/21 04:00:53;;;;;;;;;;;22.50;49.70;;;;;;5126399;28;19924;-59
2022/05/21 04:03:19;;;;;;;;;;;22.60;49.40;;;;;;5121284;28;20393;-58
2022/05/21 04:05:45;;;;;;;;;;;22.50;49.40;;;;;;5120558;27;20018;-55
2022/05/21 04:08:11;;;;;;;;;;;21.60;50.80;;;;;;5126217;28;19991;-59
2022/05/21 04:10:36;;;;;;;;;;;21.30;50.80;;;;;;5102551;28;19923;-56
2022/05/21 04:13:02;;;;;;;;;;;21.40;52.20;;;;;;5118922;28;19988;-58
2022/05/21 04:15:28;;;;;;;;;;;21.50;52.50;;;;;;5125073;28;20310;-57
2022/05/21 04:17:54;;;;;;;;;;;21.50;52.10;;;;;;5101972;28;19923;-57
2022/05/21 04:20:21;;;;;;;;;;;21.60;51.80;;;;;;5106760;28;20363;-55
2022/05/21 04:22:47;;;;;;;;;;;21.50;51.10;;;;;;5122887;28;19924;-58
2022/05/21 04:25:13;;;;;;;;;;;21.20;49.40;;;;;;5120640;28;19934;-56
2022/05/21 04:27:39;;;;;;;;;;;20.90;49.00;;;;;;5125898;28;19966;-57
2022/05/21 04:30:05;;;;;;;;;;;21.40;52.70;;;;;;5120208;28;19927;-58
2022/05/21 04:32:31;;;;;;;;;;;21.80;52.90;;;;;;5118346;28;19924;-58
2022/05/21 04:34:57;;;;;;;;;;;22.00;51.20;;;;;;5125215;28;19938;-56
2022/05/21 04:37:23;;;;;;;;;;;22.00;50.20;;;;;;5102187;28;19930;-55
2022/05/21 04:39:48;;;;;;;;;;;22.00;49.60;;;;;;5121463;28;19962;-58
2022/05/21 04:42:14;;;;;;;;;;;22.20;49.00;;;;;;5125204;28;19923;-56
2022/05/21 04:44:40;;;;;;;;;;;22.20;48.80;;;;;;5120490;28;20006;-60
2022/05/21 04:47:06;;;;;;;;;;;22.20;48.70;;;;;;5125977;28;19927;-57
2022/05/21 04:49:32;;;;;;;;;;;22.20;48.60;;;;;;5118412;28;19992;-57
2022/05/21 04:51:58;;;;;;;;;;;22.20;48.40;;;;;;5118918;28;19948;-58
2022/05/21 04:54:23;;;;;;;;;;;22.30;48.20;;;;;;5106898;28;19928;-58
2022/05/21 04:56:49;;;;;;;;;;;22.30;47.80;;;;;;5099971;28;19950;-55
2022/05/21 04:59:15;;;;;;;;;;;22.30;47.40;;;;;;5120262;28;20018;-58
2022/05/21 05:01:41;;;;;;;;;;;22.30;47.10;;;;;;5125619;28;19923;-57
2022/05/21 05:04:07;;;;;;;;;;;22.30;46.90;;;;;;5120165;28;19980;-56
2022/05/21 05:06:33;;;;;;;;;;;22.40;46.60;;;;;;5125511;28;19997;-57
2022/05/21 05:08:58;;;;;;;;;;;21.30;48.80;;;;;;5117321;28;20376;-58
2022/05/21 05:11:24;;;;;;;;;;;21.10;48.80;;;;;;5119862;28;19981;-56
2022/05/21 05:13:50;;;;;;;;;;;21.30;50.20;;;;;;5107198;28;19935;-57
2022/05/21 05:16:16;;;;;;;;;;;21.30;50.00;;;;;;5120227;27;20361;-58
2022/05/21 05:18:42;;;;;;;;;;;21.40;49.30;;;;;;5123610;28;19967;-58
2022/05/21 05:21:08;;;;;;;;;;;21.50;48.90;;;;;;5129036;28;20014;-58
2022/05/21 05:23:33;;;;;;;;;;;21.50;48.80;;;;;;5123353;28;20410;-58
2022/05/21 05:25:59;;;;;;;;;;;21.50;48.90;;;;;;5127611;28;19923;-58
2022/05/21 05:28:25;;;;;;;;;;;21.50;48.80;;;;;;5121912;28;20030;-56
2022/05/21 05:30:52;;;;;;;;;;;21.50;48.70;;;;;;5122938;28;20087;-58
2022/05/21 05:33:18;;;;;;;;;;;21.50;48.60;;;;;;5128702;28;19987;-57
2022/05/21 05:35:44;;;;;;;;;;;21.40;48.30;;;;;;5123419;28;19927;-58
2022/05/21 05:38:10;;;;;;;;;;;21.50;48.10;;;;;;5123480;28;19933;-58
2022/05/21 05:40:36;;;;;;;;;;;21.50;47.90;;;;;;5110428;28;19989;-58
2022/05/21 05:43:02;;;;;;;;;;;21.50;47.70;;;;;;5123229;28;19927;-59
2022/05/21 05:45:28;;;;;;;;;;;21.50;47.40;;;;;;5125467;28;20170;-58
2022/05/21 05:47:54;;;;;;;;;;;21.50;47.40;;;;;;5119454;28;20330;-57
2022/05/21 05:50:20;;;;;;;;;;;21.60;47.00;;;;;;5123000;28;19954;-58
2022/05/21 05:52:45;;;;;;;;;;;21.50;47.10;;;;;;5110344;28;19934;-59
2022/05/21 05:55:11;;;;;;;;;;;21.50;46.90;;;;;;5123346;28;19923;-58
2022/05/21 05:57:37;;;;;;;;;;;21.60;46.70;;;;;;5122984;28;19983;-58
2022/05/21 06:00:03;;;;;;;;;;;21.60;46.60;;;;;;5128557;28;19927;-57
2022/05/21 06:05:18;;;;;;;;;;;21.60;46.30;;;;;;5121839;28;20313;-59
2022/05/21 06:07:44;;;;;;;;;;;21.50;46.40;;;;;;5128076;28;19932;-58
2022/05/21 06:10:10;;;;;;;;;;;21.60;46.00;;;;;;5122853;28;19924;-58
2022/05/21 06:12:37;;;;;;;;;;;21.60;46.00;;;;;;5126861;28;19945;-55
2022/05/21 06:15:03;;;;;;;;;;;21.60;45.80;;;;;;5125314;28;19924;-57
2022/05/21 06:17:29;;;;;;;;;;;21.60;45.90;;;;;;5122981;28;20013;-59
2022/05/21 06:19:54;;;;;;;;;;;21.60;45.50;;;;;;5127988;28;20401;-58
2022/05/21 06:22:21;;;;;;;;;;;21.50;45.60;;;;;;5120085;28;19954;-59
2022/05/21 06:24:47;;;;;;;;;;;21.70;45.10;;;;;;5121800;28;20433;-59
2022/05/21 06:27:13;;;;;;;;;;;21.70;45.00;;;;;;5123024;27;19956;-58
2022/05/21 06:29:39;;;;;;;;;;;21.60;45.00;;;;;;5122574;28;19946;-59
2022/05/21 06:32:07;;;;;;;;;;;21.60;45.00;;;;;;5123349;28;19923;-59
2022/05/21 06:34:34;;;;;;;;;;;21.60;45.00;;;;;;5128165;28;20317;-59
2022/05/21 06:37:07;;;;;;;;;;;21.70;44.70;;;;;;5124065;28;19923;-58
2022/05/21 06:39:33;;;;;;;;;;;21.70;44.60;;;;;;5126277;28;19931;-56
2022/05/21 06:41:59;;;;;;;;;;;21.60;44.40;;;;;;5120731;28;20427;-58
2022/05/21 06:44:25;;;;;;;;;;;21.70;43.90;;;;;;5103462;28;20010;-57
2022/05/21 06:46:52;;;;;;;;;;;21.70;43.50;;;;;;5128006;28;20440;-57
2022/05/21 06:49:17;;;;;;;;;;;21.70;43.20;;;;;;5122609;28;19924;-58
2022/05/21 06:51:43;;;;;;;;;;;21.60;43.10;;;;;;5104148;28;20188;-58
2022/05/21 06:54:09;;;;;;;;;;;21.70;42.80;;;;;;5127709;28;19923;-58
2022/05/21 06:56:35;;;;;;;;;;;21.70;42.90;;;;;;5122134;28;19931;-57
2022/05/21 06:59:01;;;;;;;;;;;21.70;43.00;;;;;;5103789;28;19923;-57
2022/05/21 07:01:26;;;;;;;;;;;21.80;42.80;;;;;;5122225;28;20039;-59
2022/05/21 07:03:52;;;;;;;;;;;21.70;42.80;;;;;;5103423;28;19923;-58
2022/05/21 07:09:03;;;;;;;;;;;21.30;43.00;;;;;;5121949;28;19945;-59
2022/05/21 07:11:29;;;;;;;;;;;20.90;42.80;;;;;;5122025;28;19931;-58
2022/05/21 07:13:55;;;;;;;;;;;20.90;43.50;;;;;;5108034;28;20295;-58
2022/05/21 07:16:21;;;;;;;;;;;21.70;43.90;;;;;;5084963;28;19946;-57
2022/05/21 07:18:46;;;;;;;;;;;22.10;43.00;;;;;;5120225;28;20282;-58
2022/05/21 07:21:13;;;;;;;;;;;22.30;42.60;;;;;;5126774;28;19924;-57
2022/05/21 07:23:39;;;;;;;;;;;22.30;42.20;;;;;;5121331;28;20022;-59
2022/05/21 07:26:05;;;;;;;;;;;22.50;41.90;;;;;;5127044;28;19924;-56
2022/05/21 07:28:30;;;;;;;;;;;22.60;41.80;;;;;;5121748;28;19928;-56
2022/05/21 07:30:56;;;;;;;;;;;22.00;42.50;;;;;;5121509;28;20017;-56
2022/05/21 07:33:22;;;;;;;;;;;21.40;43.40;;;;;;5126835;28;20367;-58
2022/05/21 07:35:48;;;;;;;;;;;21.60;43.70;;;;;;5119150;28;19923;-58
2022/05/21 07:38:14;;;;;;;;;;;21.80;43.10;;;;;;5120549;28;20040;-57
2022/05/21 07:40:40;;;;;;;;;;;21.80;42.90;;;;;;5125688;27;19927;-57
2022/05/21 07:43:16;;;;;;;;;;;21.80;42.90;;;;;;5121501;28;20018;-57
2022/05/21 07:45:42;;;;;;;;;;;21.80;43.00;;;;;;5121317;28;20366;-57
2022/05/21 07:48:10;;;;;;;;;;;21.80;42.90;;;;;;5126660;28;20320;-57
2022/05/21 07:50:40;;;;;;;;;;;21.80;42.40;;;;;;5103385;28;19929;-58
2022/05/21 07:53:12;;;;;;;;;;;21.80;42.00;;;;;;5124683;28;19927;-58
2022/05/21 07:55:38;;;;;;;;;;;21.80;41.80;;;;;;5085277;28;20278;-58
2022/05/21 07:58:04;;;;;;;;;;;21.80;41.70;;;;;;5120698;28;19923;-58
2022/05/21 08:00:30;;;;;;;;;;;21.80;41.60;;;;;;5107339;28;19990;-57
2022/05/21 08:02:56;;;;;;;;;;;21.90;41.30;;;;;;5120857;28;19930;-59
2022/05/21 08:05:22;;;;;;;;;;;21.90;41.30;;;;;;5120905;28;19988;-58
2022/05/21 08:07:51;;;;;;;;;;;21.80;41.20;;;;;;5126332;28;19931;-58
2022/05/21 08:10:17;;;;;;;;;;;21.90;41.10;;;;;;5103042;28;19927;-59
2022/05/21 08:12:43;;;;;;;;;;;21.90;41.10;;;;;;5119003;28;19930;-56
2022/05/21 08:15:09;;;;;;;;;;;21.90;41.10;;;;;;5125346;28;20013;-58
2022/05/21 08:17:35;;;;;;;;;;;21.90;41.10;;;;;;5102500;28;19927;-59
2022/05/21 08:20:01;;;;;;;;;;;21.80;41.10;;;;;;5107742;28;19927;-59
2022/05/21 08:27:56;;;;;;;;;;;21.90;41.30;;;;;;5126239;28;19937;-57
2022/05/21 08:30:22;;;;;;;;;;;21.90;41.40;;;;;;5100288;28;19935;-59
2022/05/21 08:32:48;;;;;;;;;;;21.90;41.30;;;;;;5119416;28;19923;-59
2022/05/21 08:35:13;;;;;;;;;;;21.90;41.30;;;;;;5125748;28;19928;-59
2022/05/21 08:37:39;;;;;;;;;;;21.90;41.40;;;;;;5120847;28;19931;-59
2022/05/21 08:40:05;;;;;;;;;;;22.00;41.30;;;;;;5120579;28;21073;-58
2022/05/21 08:42:33;;;;;;;;;;;22.00;41.20;;;;;;5126046;28;20294;-58
2022/05/21 08:45:15;;;;;;;;;;;22.00;41.00;;;;;;5120467;28;20014;-58
2022/05/21 08:47:41;;;;;;;;;;;22.00;41.00;;;;;;5099428;28;20062;-59
2022/05/21 08:50:14;;;;;;;;;;;21.90;41.10;;;;;;5124028;27;19984;-57
2022/05/21 08:52:42;;;;;;;;;;;22.00;40.90;;;;;;5105304;28;19923;-59
2022/05/21 08:55:08;;;;;;;;;;;22.00;41.00;;;;;;5128781;28;19935;-56
2022/05/21 08:57:38;;;;;;;;;;;22.00;41.00;;;;;;5105997;28;20014;-59
2022/05/21 09:00:04;;;;;;;;;;;22.00;40.80;;;;;;5124228;28;19974;-59
2022/05/21 09:02:31;;;;;;;;;;;22.00;40.70;;;;;;5129808;28;19943;-59
2022/05/21 09:04:57;;;;;;;;;;;22.00;40.60;;;;;;5124248;28;19923;-58
2022/05/21 09:07:23;;;;;;;;;;;22.10;40.50;;;;;;5121754;28;19928;-59
2022/05/21 09:09:51;;;;;;;;;;;22.00;40.70;;;;;;5109888;28;19928;-59
2022/05/21 09:12:21;;;;;;;;;;;22.00;40.70;;;;;;5123750;28;20406;-59
2022/05/21 09:14:52;;;;;;;;;;;22.00;40.90;;;;;;5105588;28;19927;-59
2022/05/21 09:17:19;;;;;;;;;;;22.10;40.80;;;;;;5107990;28;20010;-58
2022/05/21 09:19:48;;;;;;;;;;;22.00;40.90;;;;;;5123793;28;19930;-58
2022/05/21 09:22:15;;;;;;;;;;;20.30;44.30;;;;;;5128557;28;19927;-57
2022/05/21 09:24:45;;;;;;;;;;;19.70;46.40;;;;;;5123950;28;20409;-56
2022/05/21 09:27:24;;;;;;;;;;;20.90;44.00;;;;;;5122449;28;19934;-57
2022/05/21 09:29:50;;;;;;;;;;;21.20;43.10;;;;;;5128574;28;19923;-58
2022/05/21 09:32:19;;;;;;;;;;;21.00;42.40;;;;;;5123942;28;19923;-57
2022/05/21 09:34:45;;;;;;;;;;;20.90;43.40;;;;;;5104888;28;19933;-57
2022/05/21 09:37:14;;;;;;;;;;;21.80;42.30;;;;;;5128764;28;20682;-56
2022/05/21 09:39:41;;;;;;;;;;;20.80;43.90;;;;;;5123878;28;19971;-58
2022/05/21 09:42:07;;;;;;;;;;;20.40;44.70;;;;;;5124033;28;20118;-56
2022/05/21 09:47:23;;;;;;;;;;;20.10;45.50;;;;;;5123940;28;19930;-56
2022/05/21 09:50:03;;;;;;;;;;;19.90;46.00;;;;;;5125113;28;20218;-51
2022/05/21 09:52:29;;;;;;;;;;;20.10;45.80;;;;;;5129279;28;19983;-48
2022/05/21 09:54:55;;;;;;;;;;;19.80;46.70;;;;;;5125146;28;19927;-50
2022/05/21 09:57:30;;;;;;;;;;;20.10;46.00;;;;;;5126150;28;19983;-47
2022/05/21 10:00:04;;;;;;;;;;;20.00;46.10;;;;;;5129423;28;19933;-49
2022/05/21 10:02:43;;;;;;;;;;;20.20;45.70;;;;;;5104133;28;19960;-47
2022/05/21 10:05:12;;;;;;;;;;;19.70;46.40;;;;;;5124956;28;20160;-46
2022/05/21 10:10:59;;;;;;;;;;;19.80;46.50;;;;;;5022306;28;19931;-47
2022/05/21 10:13:26;;;;;;;;;;;19.90;46.50;;;;;;4990628;28;20016;-51
2022/05/21 10:15:55;;;;;;;;;;;19.70;46.90;;;;;;5080751;28;20302;-45
2022/05/21 10:18:26;;;;;;;;;;;19.60;47.30;;;;;;5106906;28;19924;-47
2022/05/21 10:20:54;;;;;;;;;;;19.60;47.30;;;;;;5101654;28;20010;-46
2022/05/21 10:23:31;;;;;;;;;;;19.80;47.10;;;;;;5109806;28;19934;-48
2022/05/21 10:26:03;;;;;;;;;;;20.00;46.80;;;;;;5106386;28;19968;-48
2022/05/21 10:28:36;;;;;;;;;;;19.70;47.70;;;;;;5124976;28;20202;-48
2022/05/21 10:31:02;;;;;;;;;;;21.10;45.60;;;;;;5128249;28;19930;-48
2022/05/21 10:33:32;;;;;;;;;;;21.60;43.90;;;;;;5122952;28;20554;-53
2022/05/21 10:36:17;;;;;;;;;;;20.30;46.10;;;;;;5123091;28;19930;-50
2022/05/21 10:38:57;;;;;;;;;;;19.80;47.30;;;;;;5107873;28;19952;-45
2022/05/21 10:41:28;;;;;;;;;;;20.00;47.10;;;;;;5122226;28;19927;-45
2022/05/21 10:43:55;;;;;;;;;;;19.80;47.40;;;;;;5122608;28;21562;-46
2022/05/21 10:46:30;;;;;;;;;;;19.70;47.70;;;;;;5128185;28;19928;-46
2022/05/21 10:49:02;;;;;;;;;;;19.50;47.90;;;;;;5123522;28;19927;-44
2022/05/21 10:51:49;;;;;;;;;;;19.60;47.80;;;;;;5123770;28;20381;-50
2022/05/21 10:54:27;;;;;;;;;;;19.60;47.80;;;;;;5110187;28;20006;-45
2022/05/21 10:57:05;;;;;;;;;;;19.70;47.70;;;;;;5103616;28;19923;-46
2022/05/21 10:59:31;;;;;;;;;;;19.80;47.30;;;;;;5103229;28;19934;-48
2022/05/21 11:02:08;;;;;;;;;;;20.00;47.00;;;;;;5127508;28;20614;-46
2022/05/21 11:04:46;;;;;;;;;;;19.80;47.60;;;;;;5104895;28;20392;-45
2022/05/21 11:07:15;;;;;;;;;;;19.70;47.70;;;;;;5120144;28;20144;-48
2022/05/21 11:09:51;;;;;;;;;;;19.80;47.50;;;;;;5127954;28;20397;-46
2022/05/21 11:12:27;;;;;;;;;;;19.60;47.60;;;;;;5105132;28;20470;-45
2022/05/21 11:14:56;;;;;;;;;;;19.80;47.50;;;;;;5102604;28;19935;-46
2022/05/21 11:17:30;;;;;;;;;;;19.70;47.50;;;;;;5126086;28;19945;-48
2022/05/21 11:19:58;;;;;;;;;;;19.80;47.40;;;;;;5100851;28;20007;-44
2022/05/21 11:22:26;;;;;;;;;;;19.90;47.00;;;;;;5123274;28;19927;-49
2022/05/21 11:24:51;;;;;;;;;;;19.80;47.10;;;;;;5109236;28;20336;-47
2022/05/21 11:27:19;;;;;;;;;;;19.80;47.50;;;;;;5123516;28;20282;-48
2022/05/21 11:29:56;;;;;;;;;;;21.00;45.50;;;;;;5108999;28;19923;-45
2022/05/21 11:37:53;;;;;;;;;;;19.90;47.20;;;;;;5122284;28;21181;-51
2022/05/21 11:40:38;;;;;;;;;;;19.90;47.00;;;;;;5126478;28;19928;-44
2022/05/21 11:43:03;;;;;;;;;;;19.70;47.10;;;;;;5122167;28;19924;-44
2022/05/21 11:45:29;;;;;;;;;;;19.50;47.40;;;;;;5125449;28;19950;-59
2022/05/21 11:48:15;;;;;;;;;;;19.60;47.20;;;;;;5104476;28;20434;-45
2022/05/21 11:50:41;;;;;;;;;;;19.60;47.10;;;;;;5121138;28;20011;-48
2022/05/21 11:53:09;;;;;;;;;;;19.90;46.50;;;;;;5124270;28;19923;-47
2022/05/21 11:55:53;;;;;;;;;;;20.00;46.30;;;;;;5120932;28;19928;-48
2022/05/21 11:58:19;;;;;;;;;;;19.90;46.70;;;;;;5121160;28;20438;-48
2022/05/21 12:00:45;;;;;;;;;;;19.60;47.20;;;;;;5091381;28;20075;-47
2022/05/21 12:03:15;;;;;;;;;;;20.70;45.50;;;;;;5121685;28;19927;-47
2022/05/21 12:05:41;;;;;;;;;;;21.80;43.10;;;;;;5121630;28;19932;-49
2022/05/21 12:08:07;;;;;;;;;;;20.80;44.10;;;;;;5126644;28;19923;-49
2022/05/21 12:10:52;;;;;;;;;;;20.20;45.60;;;;;;5119407;28;20386;-53
2022/05/21 12:13:18;;;;;;;;;;;19.90;45.90;;;;;;5120342;28;20389;-51
2022/05/21 12:15:47;;;;;;;;;;;19.80;46.00;;;;;;5126370;28;19927;-55
2022/05/21 12:18:32;;;;;;;;;;;19.80;46.10;;;;;;5103083;28;19930;-47
2022/05/21 12:20:58;;;;;;;;;;;19.80;46.00;;;;;;5121355;28;20015;-47
2022/05/21 12:23:30;;;;;;;;;;;19.80;46.20;;;;;;5108069;28;19924;-46
2022/05/21 12:25:57;;;;;;;;;;;19.60;46.30;;;;;;5120597;27;19935;-47
2022/05/21 12:28:24;;;;;;;;;;;19.80;46.10;;;;;;5101319;28;19923;-52
2022/05/21 12:30:57;;;;;;;;;;;19.80;45.80;;;;;;5104622;28;20054;-49
2022/05/21 12:33:24;;;;;;;;;;;20.10;45.00;;;;;;5118368;28;19937;-47
2022/05/21 12:35:51;;;;;;;;;;;20.00;45.00;;;;;;5124615;28;19930;-59
2022/05/21 12:38:23;;;;;;;;;;;19.80;45.40;;;;;;5105394;28;19953;-49
2022/05/21 12:41:04;;;;;;;;;;;20.00;45.10;;;;;;5121411;28;20284;-48
2022/05/21 12:43:42;;;;;;;;;;;19.80;45.10;;;;;;5125950;28;19927;-52
2022/05/21 12:46:16;;;;;;;;;;;20.00;44.90;;;;;;5125673;28;19930;-47
2022/05/21 12:48:42;;;;;;;;;;;19.90;45.00;;;;;;5116882;28;20392;-48
2022/05/21 12:51:08;;;;;;;;;;;19.90;45.10;;;;;;5125729;28;19927;-48
2022/05/21 12:53:42;;;;;;;;;;;19.90;45.10;;;;;;5102336;28;19924;-49
2022/05/21 12:56:16;;;;;;;;;;;20.00;44.80;;;;;;5102515;28;19935;-49
2022/05/21 12:58:41;;;;;;;;;;;19.80;44.90;;;;;;5123617;28;19927;-46
2022/05/21 13:01:07;;;;;;;;;;;20.00;44.40;;;;;;5120557;28;19953;-51
2022/05/21 13:03:33;;;;;;;;;;;19.90;44.50;;;;;;5120759;28;19923;-48
2022/05/21 13:06:00;;;;;;;;;;;20.20;43.80;;;;;;5123592;28;20014;-49
2022/05/21 13:08:27;;;;;;;;;;;20.20;43.40;;;;;;5119274;28;19923;-53
2022/05/21 13:10:53;;;;;;;;;;;19.80;44.40;;;;;;5120312;28;19927;-48
2022/05/21 13:13:19;;;;;;;;;;;19.90;44.20;;;;;;5125813;28;19927;-46
2022/05/21 13:16:05;;;;;;;;;;;19.90;44.30;;;;;;5102214;28;19923;-46
2022/05/21 13:18:58;;;;;;;;;;;19.80;44.10;;;;;;5120595;28;19934;-58
2022/05/21 13:21:23;;;;;;;;;;;21.30;41.50;;;;;;5120654;28;19972;-49
2022/05/21 13:23:56;;;;;;;;;;;21.60;40.30;;;;;;5118984;28;19928;-49
2022/05/21 13:26:22;;;;;;;;;;;20.50;42.60;;;;;;5100258;28;19928;-51
2022/05/21 13:28:48;;;;;;;;;;;20.10;42.90;;;;;;5124840;28;19937;-50
2022/05/21 13:31:15;;;;;;;;;;;20.00;42.30;;;;;;5119970;28;20395;-48
2022/05/21 13:33:44;;;;;;;;;;;20.30;41.90;;;;;;5125310;28;19924;-50
2022/05/21 13:36:12;;;;;;;;;;;20.20;41.90;;;;;;5120018;28;19976;-47
2022/05/21 13:38:38;;;;;;;;;;;20.10;42.40;;;;;;5103583;28;21241;-47
2022/05/21 13:41:05;;;;;;;;;;;20.10;42.10;;;;;;5128660;28;20454;-51
2022/05/21 13:43:34;;;;;;;;;;;20.00;42.50;;;;;;5121016;28;19934;-49
2022/05/21 13:46:02;;;;;;;;;;;20.30;41.90;;;;;;5122598;28;20051;-46
2022/05/21 13:48:29;;;;;;;;;;;20.20;42.30;;;;;;5108549;28;19930;-47
2022/05/21 13:50:55;;;;;;;;;;;20.00;42.70;;;;;;5119021;28;20014;-48
2022/05/21 13:53:24;;;;;;;;;;;19.90;43.20;;;;;;5124606;28;19932;-53
2022/05/21 13:55:57;;;;;;;;;;;20.00;43.60;;;;;;5109749;28;22400;-45
2022/05/21 13:58:28;;;;;;;;;;;20.00;43.80;;;;;;5123115;28;20060;-48
2022/05/21 14:00:54;;;;;;;;;;;20.10;43.90;;;;;;5126448;28;19924;-46
2022/05/21 14:03:25;;;;;;;;;;;20.00;44.10;;;;;;5102667;28;20310;-45
2022/05/21 14:05:51;;;;;;;;;;;19.80;44.70;;;;;;5103219;28;19927;-49
2022/05/21 14:08:21;;;;;;;;;;;20.00;44.80;;;;;;5128246;28;19950;-48
2022/05/21 14:10:49;;;;;;;;;;;19.80;45.70;;;;;;5122637;28;19930;-49
2022/05/21 14:13:34;;;;;;;;;;;20.30;44.40;;;;;;5122806;28;19931;-45
2022/05/21 14:16:05;;;;;;;;;;;20.30;43.80;;;;;;5128474;28;20380;-48
2022/05/21 14:18:32;;;;;;;;;;;19.80;44.90;;;;;;5121660;28;20007;-47
2022/05/21 14:21:18;;;;;;;;;;;19.80;45.20;;;;;;5120802;28;20034;-47
2022/05/21 14:23:44;;;;;;;;;;;19.90;45.10;;;;;;5127361;28;19955;-47
2022/05/21 14:26:10;;;;;;;;;;;19.60;46.00;;;;;;5122542;28;20018;-46
2022/05/21 14:28:36;;;;;;;;;;;20.60;44.30;;;;;;5122565;28;19931;-51
2022/05/21 14:31:10;;;;;;;;;;;21.80;41.90;;;;;;5128326;28;19923;-49
2022/05/21 14:33:49;;;;;;;;;;;20.80;43.80;;;;;;5103032;28;19923;-46
2022/05/21 14:36:23;;;;;;;;;;;20.10;45.70;;;;;;5118522;28;20165;-46
2022/05/21 14:38:49;;;;;;;;;;;20.30;45.00;;;;;;5105905;28;20296;-45
2022/05/21 14:41:51;;;;;;;;;;;20.20;45.10;;;;;;5101273;28;19924;-49
2022/05/21 14:44:20;;;;;;;;;;;20.00;45.20;;;;;;5018765;28;19931;-46
2022/05/21 14:49:31;;;;;;;;;;;20.00;45.10;;;;;;5106537;28;19930;-46
2022/05/21 14:54:49;;;;;;;;;;;19.80;45.90;;;;;;5095243;28;20023;-49
2022/05/21 14:57:15;;;;;;;;;;;19.80;46.10;;;;;;5120003;28;20370;-47
2022/05/21 14:59:41;;;;;;;;;;;19.70;46.50;;;;;;5121645;28;21914;-45
2022/05/21 15:02:07;;;;;;;;;;;20.00;45.70;;;;;;5127472;28;20006;-45